• Join FlightAware (Why Join?)
  • Login
  • US Flag 
02:24AM EST


 

Airport Tracker/Info


-or-


 

Live Flight TrackerFlight Track Log ✈ EJA743 ✈ 30-Apr-2012 ✈ KBUR - KSJC

Flight Track Log - Related Links

Times and Time Zones

All times are in EDT time to prevent confusion due to time zone crossing. See the EJA743 flight status page for this flight to view local times or setup timezone preferences in your user account.

Time Position Orientation Groundspeed Altitude Reporting Facility
EDT Latitude Longitude Course Direction KTS MPH feet Rate Location/Type
08:12PM 34.1667 -118.4000 342° North 221 254 3,800  Level Southern California TRACON
08:15PM 34.3239 -118.4606 325° Northwest 269 310 11,300 2,880 Climbing Los Angeles Center
08:16PM 34.3917 -118.5178 324° Northwest 285 328 13,000 1,500 Climbing Los Angeles Center
08:17PM 34.4614 -118.5803 326° Northwest 298 343 14,400 1,320 Climbing Los Angeles Center
08:18PM 34.5375 -118.6428 325° Northwest 315 362 15,700 1,500 Climbing Los Angeles Center
08:19PM 34.6256 -118.7164 323° Northwest 347 399 17,500 1,800 Climbing Los Angeles Center
08:20PM 34.7156 -118.7975 326° Northwest 388 447 19,400 1,560 Climbing Los Angeles Center
08:21PM 34.7936 -118.8606 328° Northwest 405 466 20,700 1,380 Climbing Los Angeles Center
08:22PM 34.9044 -118.9453 327° Northwest 422 486 22,200 1,140 Climbing Los Angeles Center
08:23PM 35.0089 -119.0275 326° Northwest 433 498 23,000 780 Climbing Los Angeles Center
08:24PM 35.1111 -119.1125 326° Northwest 438 504 23,800 1,380 Climbing Los Angeles Center
08:25PM 35.2153 -119.2000 326° Northwest 443 510 25,800 1,800 Climbing Los Angeles Center
08:26PM 35.3197 -119.2856 326° Northwest 448 516 27,500 1,320 Climbing Los Angeles Center
08:27PM 35.4239 -119.3711 291° West 448 516 28,500 780 Climbing Los Angeles Center
08:29PM 35.5239 -119.6853 286° West 468 539 30,000 420 Climbing Oakland Center
08:30PM 35.5608 -119.8403 287° West 468 539 30,000  Level Oakland Center
08:31PM 35.5978 -119.9906 286° West 468 539 30,000  Level Oakland Center
08:32PM 35.6344 -120.1433 287° West 468 539 30,000  Level Oakland Center
08:33PM 35.6708 -120.2911 294° West 463 533 30,000  Level Oakland Center
08:34PM 35.7217 -120.4339 299° West 463 533 30,000  Level Oakland Center
08:35PM 35.7847 -120.5717 299° West 463 533 30,000  Level Oakland Center
08:36PM 35.8478 -120.7097 299° West 458 527 30,000  Level Oakland Center
08:37PM 35.9083 -120.8453 300° West 458 527 30,000  Level Oakland Center
08:38PM 35.9731 -120.9839 318° Northwest 458 527 30,000 -120 Level Oakland Center
08:39PM 36.0669 -121.0892 326° Northwest 464 534 29,800 -1,380 Descending Oakland Center
08:40PM 36.1753 -121.1794 325° Northwest 456 525 27,300 -2,760 Descending Oakland Center
08:41PM 36.2772 -121.2672 324° Northwest 456 525 24,300 -2,880 Descending Oakland Center
08:42PM 36.3731 -121.3528 334° Northwest 445 512 21,600 -2,760 Descending Oakland Center
08:43PM 36.4750 -121.4153 342° North 425 489 18,900 -2,640 Descending Oakland Center
08:44PM 36.5769 -121.4572 340° North 400 460 16,400 -2,520 Descending Oakland Center
08:45PM 36.6708 -121.4992 342° North 380 437 13,900 -2,100 Descending Oakland Center
08:46PM 36.7622 -121.5361 340° North 360 414 12,200 -1,800 Descending Oakland Center
08:47PM 36.8539 -121.5783 339° North 334 384 10,300 -1,800 Descending Oakland Center
08:48PM 36.9247 -121.6125 348° North 298 343 8,600 -1,440 Descending Oakland Center
08:49PM 37.0000 -121.6333 338° Northwest 256 295 7,300 -1,200 Descending Northern Cal TRACON
08:50PM 37.0667 -121.6667 332° Northwest 225 259 6,200 -960 Descending Northern Cal TRACON
08:51PM 37.1167 -121.7000 345° North 208 239 5,400 -600 Descending Northern Cal TRACON
08:52PM 37.1667 -121.7167 310° West 189 217 5,000 -780 Descending Northern Cal TRACON
08:53PM 37.2000 -121.7667 321° Northwest 180 207 3,900 -1,080 Descending Northern Cal TRACON
08:54PM 37.2333 -121.8000 332° Northwest 173 199 3,000 -1,020 Descending Northern Cal TRACON
08:55PM 37.2833 -121.8333 322° Northwest 169 194 1,900 -900 Descending Northern Cal TRACON
08:56PM 37.3167 -121.8667 310° West 155 178 1,200 -780 Descending Northern Cal TRACON
08:57PM 37.3500 -121.9167 310° West 138 159 400 -780 Descending Northern Cal TRACON